Terminal Aerodrome Forecast
Issued by NWS

Home | Current Version | Previous Version | Text Only | Print | Product List | Glossary On
Versions: 1 2 3 4 5 6 7 8 9 10 11 12 13 14 15 16 17 18 19 20 21 22 23 24 25 26 27 28
141
FTUS45 KGJT 302335
TAFRIL
TAF
KRIL 302335Z 3100/3124 35004KT P6SM VCSH SCT110
      TEMPO 3100/3102 VRB10G20KT BKN110
     FM310300 14004KT P6SM SKC
     FM311800 34007KT P6SM FEW110=

USA.gov is the U.S. government's official web portal to all federal, state and local government web resources and services.